Latest Weather Observations for Arlington Reef

IDQ60801

Issued at 2:02 pm EST Saturday 25 March 2017 (issued every 30 minutes, with the page automatically refreshed every 10 minutes)

About weather observations | Map of weather stations | Latest weather observations for QLD | Other Formats
Station Details ID: 200879 Name: ARLINGTON REEF Lat: -16.72 Lon: 146.11 Height: 0.0 m
Data from the previous 72 hours. | See also: Recent months at Arlington Reef
Date/Time
EST
Temp
°C
App
Temp
°C
Dew
Point
°C
Rel
Hum
%
Delta-T
°C
Wind Press
QNH
hPa
Press
MSL
hPa
Rain since
9am
mm
Dir  Spd
km/h
Gust
km/h
Spd
kts
Gust
kts
25/02:00pm - - - - - S 32 37 17 20 1007.1 1007.1 -
25/01:30pm - - - - - S 33 39 18 21 1007.2 1007.2 -
25/01:00pm - - - - - S 33 39 18 21 1007.3 1007.3 -
25/12:30pm - - - - - S 32 37 17 20 1007.8 1007.8 -
25/12:00pm - - - - - S 35 41 19 22 1008.1 1008.1 -
25/11:30am - - - - - S 33 37 18 20 1008.6 1008.6 -
25/11:00am - - - - - S 32 37 17 20 1009.1 1009.1 -
25/10:30am - - - - - S 32 37 17 20 1009.3 1009.3 -
25/10:00am - - - - - S 32 39 17 21 1009.4 1009.4 -
25/09:30am - - - - - S 32 37 17 20 1009.1 1009.1 -
25/09:00am - - - - - S 33 41 18 22 1008.8 1008.8 -
25/08:30am - - - - - S 35 39 19 21 1008.4 1008.4 -
25/08:00am - - - - - S 35 41 19 22 1008.2 1008.2 -
25/07:30am - - - - - S 32 37 17 20 1007.8 1007.8 -
25/07:00am - - - - - S 32 39 17 21 1007.3 1007.3 -
25/06:30am - - - - - SSE 30 37 16 20 1007.1 1007.1 -
25/06:00am - - - - - S 28 33 15 18 1006.9 1006.9 -
25/05:30am - - - - - S 26 30 14 16 1006.9 1006.9 -
25/05:00am - - - - - S 15 17 8 9 1006.6 1006.6 -
25/04:30am - - - - - S 13 17 7 9 1007.1 1007.1 -
25/04:00am - - - - - SE 15 22 8 12 1007.3 1007.3 -
25/03:30am - - - - - SSE 20 30 11 16 1007.5 1007.5 -
25/03:00am - - - - - SE 9 13 5 7 1008.0 1008.0 -
25/02:30am - - - - - SE 13 17 7 9 1008.3 1008.3 -
25/02:00am - - - - - SE 19 22 10 12 1008.6 1008.6 -
25/01:30am - - - - - SE 17 20 9 11 1008.8 1008.8 -
25/01:00am - - - - - S 19 24 10 13 1009.2 1009.2 -
25/12:30am - - - - - SSW 19 22 10 12 1009.2 1009.2 -
25/12:00am - - - - - SSW 20 26 11 14 1009.5 1009.5 -
 
Date/Time
EST
Temp
°C
App
Temp
°C
Dew
Point
°C
Rel
Hum
%
Delta-T
°C
Wind Press
QNH
hPa
Press
MSL
hPa
Rain since
9am
mm
Dir  Spd
km/h
Gust
km/h
Spd
kts
Gust
kts
24/11:30pm - - - - - S 15 20 8 11 1009.9 1009.9 -
24/11:00pm - - - - - SSE 11 19 6 10 1010.2 1010.2 -
24/10:30pm - - - - - SE 24 30 13 16 1010.4 1010.4 -
24/10:00pm - - - - - SE 19 22 10 12 1010.3 1010.3 -
24/09:30pm - - - - - SE 15 19 8 10 1009.8 1009.8 -
24/09:00pm - - - - - ESE 13 17 7 9 1009.7 1009.7 -
24/08:30pm - - - - - SE 15 19 8 10 1009.6 1009.6 -
24/08:00pm - - - - - S 24 32 13 17 1009.5 1009.5 -
24/07:30pm - - - - - SSE 20 24 11 13 1009.4 1009.4 -
24/07:00pm - - - - - SSW 15 19 8 10 1008.8 1008.8 -
24/06:30pm - - - - - SSE 15 17 8 9 1008.4 1008.4 -
24/06:00pm - - - - - SE 17 22 9 12 1008.0 1008.0 -
24/05:30pm - - - - - SE 22 26 12 14 1007.8 1007.8 -
24/05:00pm - - - - - ESE 22 26 12 14 1007.8 1007.8 -
24/04:30pm - - - - - ESE 33 44 18 24 1007.3 1007.3 -
24/04:25pm - - - - - E 26 43 14 23 1007.2 1007.2 -
24/04:00pm - - - - - E 17 22 9 12 1007.3 1007.3 -
24/03:30pm - - - - - SE 7 11 4 6 1007.2 1007.2 -
24/03:00pm - - - - - E 2 4 1 2 1007.1 1007.1 -
24/02:30pm - - - - - E 4 6 2 3 1007.3 1007.3 -
24/02:00pm - - - - - CALM 0 0 0 0 1007.6 1007.6 -
24/01:30pm - - - - - ESE 11 15 6 8 1008.1 1008.1 -
24/01:00pm - - - - - E 24 28 13 15 1008.5 1008.5 -
24/12:30pm - - - - - SE 24 41 13 22 1008.7 1008.7 -
24/12:00pm - - - - - S 20 24 11 13 1008.7 1008.7 -
24/11:30am - - - - - S 17 20 9 11 1009.2 1009.2 -
24/11:00am - - - - - S 19 24 10 13 1009.4 1009.4 -
24/10:30am - - - - - SE 17 20 9 11 1010.0 1010.0 -
24/10:00am - - - - - SE 32 37 17 20 1010.0 1010.0 -
24/09:30am - - - - - E 17 26 9 14 1010.2 1010.2 -
24/09:00am - - - - - SSE 24 30 13 16 1009.6 1009.6 -
24/08:30am - - - - - SSE 24 32 13 17 1009.2 1009.2 -
24/08:00am - - - - - SSE 22 28 12 15 1008.9 1008.9 -
24/07:30am - - - - - SSE 19 24 10 13 1008.8 1008.8 -
24/07:00am - - - - - SSE 13 15 7 8 1008.6 1008.6 -
24/06:30am - - - - - SSE 7 11 4 6 1008.2 1008.2 -
24/06:00am - - - - - CALM 0 0 0 0 1008.1 1008.1 -
24/05:30am - - - - - CALM 0 0 0 0 1007.7 1007.7 -
24/05:00am - - - - - NW 6 7 3 4 1007.7 1007.7 -
24/04:30am - - - - - SSW 22 33 12 18 1007.9 1007.9 -
24/04:00am - - - - - ESE 22 37 12 20 1007.8 1007.8 -
24/03:47am - - - - - SE 19 35 10 19 1007.3 1007.3 -
24/03:30am - - - - - SE 9 13 5 7 1007.6 1007.6 -
24/03:00am - - - - - SE 11 13 6 7 1007.8 1007.8 -
24/02:30am - - - - - ESE 9 13 5 7 1008.1 1008.1 -
24/02:00am - - - - - E 13 15 7 8 1008.2 1008.2 -
24/01:30am - - - - - ENE 13 17 7 9 1008.6 1008.6 -
24/01:00am - - - - - ENE 22 28 12 15 1008.8 1008.8 -
24/12:30am - - - - - ESE 17 24 9 13 1008.9 1008.9 -
24/12:00am - - - - - ESE 13 17 7 9 1009.2 1009.2 -
 
Date/Time
EST
Temp
°C
App
Temp
°C
Dew
Point
°C
Rel
Hum
%
Delta-T
°C
Wind Press
QNH
hPa
Press
MSL
hPa
Rain since
9am
mm
Dir  Spd
km/h
Gust
km/h
Spd
kts
Gust
kts
23/11:30pm - - - - - ENE 13 19 7 10 1009.1 1009.1 -
23/11:00pm - - - - - ENE 4 6 2 3 1009.3 1009.3 -
23/10:30pm - - - - - NE 15 20 8 11 1009.5 1009.5 -
23/10:00pm - - - - - E 19 39 10 21 1009.6 1009.6 -
23/09:30pm - - - - - ESE 17 20 9 11 1009.7 1009.7 -
23/09:00pm - - - - - ESE 19 22 10 12 1009.3 1009.3 -
23/08:30pm - - - - - ESE 19 20 10 11 1009.1 1009.1 -
23/08:00pm - - - - - ESE 17 20 9 11 1008.9 1008.9 -
23/07:30pm - - - - - ESE 19 22 10 12 1008.9 1008.9 -
23/07:00pm - - - - - ESE 17 20 9 11 1008.7 1008.7 -
23/06:30pm - - - - - ESE 17 19 9 10 1008.4 1008.4 -
23/06:00pm - - - - - SE 19 22 10 12 1008.1 1008.1 -
23/05:30pm - - - - - SE 15 19 8 10 1007.6 1007.6 -
23/05:00pm - - - - - SE 17 20 9 11 1007.4 1007.4 -
23/04:30pm - - - - - SSE 17 19 9 10 1007.0 1007.0 -
23/04:00pm - - - - - SE 20 24 11 13 1006.7 1006.7 -
23/03:30pm - - - - - SE 19 22 10 12 1006.7 1006.7 -
23/03:00pm - - - - - SE 17 19 9 10 1007.1 1007.1 -
23/02:30pm - - - - - ESE 15 20 8 11 1007.0 1007.0 -
23/02:00pm - - - - - SE 11 15 6 8 1007.2 1007.2 -
23/01:30pm - - - - - SE 7 9 4 5 1007.8 1007.8 -
23/01:00pm - - - - - SE 7 11 4 6 1008.3 1008.3 -
23/12:30pm - - - - - S 7 11 4 6 1008.5 1008.5 -
23/12:00pm - - - - - SSE 6 7 3 4 1009.0 1009.0 -
23/11:30am - - - - - SSE 6 7 3 4 1009.6 1009.6 -
23/11:00am - - - - - SSE 6 7 3 4 1010.1 1010.1 -
23/10:30am - - - - - SSW 4 6 2 3 1010.3 1010.3 -
23/10:00am - - - - - SSW 6 9 3 5 1010.3 1010.3 -
23/09:30am - - - - - SW 7 9 4 5 1010.4 1010.4 -
23/09:00am - - - - - SW 6 9 3 5 1010.1 1010.1 -
23/08:30am - - - - - W 4 6 2 3 1009.8 1009.8 -
23/08:00am - - - - - WNW 6 7 3 4 1009.5 1009.5 -
23/07:30am - - - - - W 2 4 1 2 1008.9 1008.9 -
23/07:00am - - - - - NW 4 6 2 3 1008.8 1008.8 -
23/06:30am - - - - - WNW 6 6 3 3 1008.7 1008.7 -
23/06:00am - - - - - NW 6 6 3 3 1008.6 1008.6 -
23/05:30am - - - - - NNW 13 17 7 9 1008.4 1008.4 -
23/05:00am - - - - - NNW 9 13 5 7 1008.2 1008.2 -
23/04:30am - - - - - SE 6 9 3 5 1008.2 1008.2 -
23/04:00am - - - - - ESE 6 13 3 7 1007.9 1007.9 -
23/03:30am - - - - - NE 2 6 1 3 1007.9 1007.9 -
23/03:00am - - - - - NNE 6 7 3 4 1007.8 1007.8 -
23/02:30am - - - - - NNE 4 6 2 3 1007.8 1007.8 -
23/02:00am - - - - - N 4 9 2 5 1008.4 1008.4 -
23/01:30am - - - - - NNE 9 13 5 7 1008.8 1008.8 -
23/01:00am - - - - - ENE 6 6 3 3 1009.1 1009.1 -
23/12:30am - - - - - E 4 6 2 3 1009.5 1009.5 -
23/12:00am - - - - - ESE 13 19 7 10 1009.4 1009.4 -
 
Date/Time
EST
Temp
°C
App
Temp
°C
Dew
Point
°C
Rel
Hum
%
Delta-T
°C
Wind Press
QNH
hPa
Press
MSL
hPa
Rain since
9am
mm
Dir  Spd
km/h
Gust
km/h
Spd
kts
Gust
kts
22/11:30pm - - - - - E 6 7 3 4 1009.6 1009.6 -
22/11:00pm - - - - - NE 4 6 2 3 1009.9 1009.9 -
22/10:30pm - - - - - CALM 0 0 0 0 1010.1 1010.1 -
22/10:00pm - - - - - CALM 0 4 0 2 1010.0 1010.0 -
22/09:30pm - - - - - CALM 0 0 0 0 1009.9 1009.9 -
22/09:00pm - - - - - NE 2 4 1 2 1009.6 1009.6 -
22/08:30pm - - - - - NE 6 9 3 5 1009.3 1009.3 -
22/08:00pm - - - - - ENE 4 7 2 4 1008.9 1008.9 -
22/07:30pm - - - - - ENE 6 6 3 3 1008.1 1008.1 -
22/07:00pm - - - - - E 4 7 2 4 1007.7 1007.7 -
22/06:30pm - - - - - E 6 9 3 5 1007.4 1007.4 -
22/06:00pm - - - - - E 7 11 4 6 1007.0 1007.0 -
22/05:30pm - - - - - E 7 11 4 6 1006.8 1006.8 -
22/05:00pm - - - - - E 7 9 4 5 1006.7 1006.7 -
22/04:30pm - - - - - ENE 6 7 3 4 1006.5 1006.5 -
22/04:00pm - - - - - E 7 11 4 6 1006.4 1006.4 -
22/03:30pm - - - - - E 9 11 5 6 1006.5 1006.5 -
22/03:00pm - - - - - ENE 11 15 6 8 1006.8 1006.8 -
22/02:30pm - - - - - E 9 13 5 7 1007.1 1007.1 -

Other Formats:

Comma delimited format used in spreadsheet applications
http://www.bom.gov.au/fwo/IDQ60801/IDQ60801.94284.axf

JavaScript Object Notation format (JSON) in row-major order
http://www.bom.gov.au/fwo/IDQ60801/IDQ60801.94284.json